메인 페이지
METAR-TAF:

METAR-TAF

공항 :

충칭 장베이 국제공항

충칭, 중국

위도: 29-31N, 경도: 106-29E, 고도: 351m

현재 날씨관측

예보는 1 시간 6분 전, 04:00시(UTC)에 발표되었습니다.
4kt북북서풍과 북동풍을 오가는
온도 15°C
습도 77%
기압 1019 hPa
시정: 9000m
고도 3000ft 상공 구름 보통
고도 5000ft 상공 흐림

METAR: ZUCK 150400Z 36002MPS 330V040 9000 SCT030 OVC050 15/11 Q1019 NOSIG

시각: 13:06 (05:06 UTC)

예보

예보는 9 시간 49분 전, 19:17시(UTC)에 발표되었습니다.
예보 대상 시간: 15일 00시부터 15일 24시까지 (UTC)
북북동6kt
시정: 6000m
고도 3000ft 상공 구름 보통
전환 중
15일 12시부터 15일 13시까지 (UTC)
시정: 3500m
약한비, 박무

TAF: ZUCK 141917Z 1500/1524 03003MPS 6000 SCT030 TX16/1507Z TN11/1522Z BECMG 1512/1513 3500 -RA BR

4,000개 이상의 공항 관측 자료 및 예보 (METAR 및 TAF 보고).

지도상에서 검색 가능한 기상관측소가 노란 점과 빨간 점으로 표시되어 있습니다.

기상관측소 명을 보려면 표시 위로 마우스를 이동하세요.

날씨 관측과 예보를 보려면 클릭하세요.

지도 변경 : 확대하려면 엑스 표시가 있는 녹색 버튼, 축소하려면 빼기 표시가 있는 녹색 버튼, 다음 페이지의 지도를 보려면 녹색 화살표를 클릭하세요.


METAR-TAF: